Time;durP1;ratioP1;P1;durP2;ratioP2;P2;SDS_P1;SDS_P2;PMS_P1;PMS_P2;Temp;Humidity;BMP_temperature;BMP_pressure;BME280_temperature;BME280_humidity;BME280_pressure;Samples;Min_cycle;Max_cycle;Signal;HPM_P1;HPM_P2
2022/06/25 00:01:57;;;;;;;6.30;1.63;;;15.40;99.90;;;;;;5053698;28;20049;-92
2022/06/25 00:07:07;;;;;;;7.18;1.75;;;15.20;99.90;;;;;;5054931;28;20036;-93
2022/06/25 00:09:33;;;;;;;3.00;1.48;;;15.20;99.90;;;;;;5059851;28;20100;-90
2022/06/25 00:14:44;;;;;;;1.92;1.30;;;15.00;99.90;;;;;;5069713;28;20048;-85
2022/06/25 00:17:09;;;;;;;2.33;1.30;;;15.00;99.90;;;;;;5076416;28;20017;-89
2022/06/25 00:19:35;;;;;;;5.05;1.70;;;14.90;99.90;;;;;;5056611;28;20036;-88
2022/06/25 00:22:03;;;;;;;7.35;1.70;;;14.90;99.90;;;;;;5057755;28;20030;-90
2022/06/25 00:24:28;;;;;;;3.88;1.23;;;14.90;99.90;;;;;;5039816;28;20056;-92
2022/06/25 00:26:54;;;;;;;2.00;1.38;;;14.80;99.90;;;;;;5015621;28;20093;-92
2022/06/25 00:29:20;;;;;;;5.97;2.20;;;14.80;99.90;;;;;;5081054;28;20458;-91
2022/06/25 00:31:45;;;;;;;4.13;1.30;;;14.80;99.90;;;;;;5093703;28;20063;-91
2022/06/25 00:34:11;;;;;;;2.50;1.48;;;14.70;99.90;;;;;;5091698;28;20056;-89
2022/06/25 00:36:37;;;;;;;1.75;1.30;;;14.70;99.90;;;;;;5093961;28;20103;-91
2022/06/25 00:39:04;;;;;;;4.18;1.80;;;14.70;99.90;;;;;;5092921;28;20075;-90
2022/06/25 00:41:30;;;;;;;6.93;1.67;;;14.60;99.90;;;;;;5093988;28;20019;-92
2022/06/25 00:43:56;;;;;;;3.50;1.40;;;14.60;99.90;;;;;;5093724;28;20032;-92
2022/06/25 00:46:22;;;;;;;7.72;1.45;;;14.50;99.90;;;;;;5092484;28;20035;-89
2022/06/25 00:48:47;;;;;;;2.03;0.93;;;14.50;99.90;;;;;;5093368;28;20031;-92
2022/06/25 00:51:15;;;;;;;6.15;1.10;;;14.50;99.90;;;;;;5093689;28;20040;-91
2022/06/25 00:53:44;;;;;;;0.68;0.65;;;14.40;99.90;;;;;;5092922;28;20031;-90
2022/06/25 00:56:13;;;;;;;3.25;0.40;;;14.40;99.90;;;;;;5093333;28;20020;-90
2022/06/25 00:58:44;;;;;;;4.43;0.85;;;14.30;99.90;;;;;;5093712;28;20024;-91
2022/06/25 01:01:10;;;;;;;2.88;0.77;;;14.20;99.90;;;;;;5092707;28;20036;-90
2022/06/25 01:03:37;;;;;;;3.40;0.80;;;14.10;99.90;;;;;;5091906;28;20024;-90
2022/06/25 01:06:04;;;;;;;5.40;0.80;;;13.90;99.90;;;;;;5093431;28;20044;-91
2022/06/25 01:08:31;;;;;;;3.95;0.68;;;13.90;99.90;;;;;;5097024;28;20020;-90
2022/06/25 01:10:57;;;;;;;5.53;0.75;;;13.80;99.90;;;;;;5112611;28;20053;-91
2022/06/25 01:13:23;;;;;;;4.80;0.80;;;13.70;99.90;;;;;;5098270;28;20050;-90
2022/06/25 01:15:49;;;;;;;2.60;0.63;;;13.60;99.90;;;;;;5097849;28;20047;-90
2022/06/25 01:18:16;;;;;;;5.25;1.25;;;13.50;99.90;;;;;;5095623;28;20035;-90
2022/06/25 01:20:44;;;;;;;5.18;0.73;;;13.40;99.90;;;;;;5095179;28;20035;-90
2022/06/25 01:23:13;;;;;;;3.95;0.88;;;13.40;99.90;;;;;;5092730;28;20383;-92
2022/06/25 01:25:40;;;;;;;4.57;0.90;;;13.30;99.90;;;;;;5093346;28;20024;-92
2022/06/25 01:28:06;;;;;;;4.88;1.00;;;13.30;99.90;;;;;;5094423;28;20108;-90
2022/06/25 01:30:32;;;;;;;4.32;0.50;;;13.30;99.90;;;;;;5093608;28;20023;-90
2022/06/25 01:32:59;;;;;;;5.30;0.98;;;13.30;99.90;;;;;;5093857;28;20024;-91
2022/06/25 01:35:25;;;;;;;1.70;0.68;;;13.20;99.90;;;;;;5095280;28;20073;-91
2022/06/25 01:37:51;;;;;;;3.40;0.82;;;13.20;99.90;;;;;;5101987;28;20035;-91
2022/06/25 01:40:17;;;;;;;4.68;0.90;;;13.10;99.90;;;;;;5110620;27;20031;-89
2022/06/25 01:42:58;;;;;;;1.55;0.70;;;13.10;99.90;;;;;;5101737;28;20059;-92
2022/06/25 01:45:30;;;;;;;4.47;0.98;;;13.00;99.90;;;;;;5094177;28;20074;-91
2022/06/25 01:47:57;;;;;;;6.18;1.00;;;13.00;99.90;;;;;;5093863;28;20016;-92
2022/06/25 01:50:23;;;;;;;6.85;0.93;;;13.00;99.90;;;;;;5091208;28;20106;-91
2022/06/25 01:52:49;;;;;;;3.80;1.02;;;13.00;99.90;;;;;;5096321;28;20048;-91
2022/06/25 01:55:15;;;;;;;5.50;0.95;;;13.00;99.90;;;;;;5101975;28;20022;-94
2022/06/25 01:57:41;;;;;;;6.85;1.00;;;13.00;99.90;;;;;;5102752;28;20044;-92
2022/06/25 02:00:10;;;;;;;6.65;1.25;;;13.00;99.90;;;;;;5102278;28;20028;-89
2022/06/25 02:02:37;;;;;;;5.47;1.00;;;13.00;99.90;;;;;;5099011;28;20579;-92
2022/06/25 02:05:05;;;;;;;6.93;1.00;;;13.00;99.90;;;;;;5089389;28;20056;-92
2022/06/25 02:07:31;;;;;;;5.57;1.55;;;13.00;99.90;;;;;;5092083;28;20469;-92
2022/06/25 02:09:56;;;;;;;9.30;1.10;;;12.90;99.90;;;;;;5092320;28;20259;-91
2022/06/25 02:12:22;;;;;;;5.03;1.10;;;12.90;99.90;;;;;;5092084;28;20218;-90
2022/06/25 02:14:48;;;;;;;1.55;0.88;;;12.90;99.90;;;;;;5093355;28;20473;-90
2022/06/25 02:17:13;;;;;;;3.53;1.10;;;12.80;99.90;;;;;;5096135;28;20024;-90
2022/06/25 02:19:39;;;;;;;9.65;1.02;;;12.80;99.90;;;;;;5096167;28;20020;-90
2022/06/25 02:22:05;;;;;;;5.97;1.20;;;12.80;99.90;;;;;;5097664;28;20035;-91
2022/06/25 02:24:32;;;;;;;6.32;1.60;;;12.70;99.90;;;;;;5113636;28;20091;-86
2022/06/25 02:26:58;;;;;;;2.38;0.90;;;12.70;99.90;;;;;;5114745;28;20021;-90
2022/06/25 02:29:23;;;;;;;6.90;1.15;;;12.70;99.90;;;;;;5106862;28;20020;-91
2022/06/25 02:31:49;;;;;;;8.27;1.02;;;12.70;99.90;;;;;;5112873;28;20031;-91
2022/06/25 02:34:15;;;;;;;3.42;1.10;;;12.60;99.90;;;;;;5095474;28;20489;-89
2022/06/25 02:36:41;;;;;;;6.38;1.30;;;12.60;99.90;;;;;;5097491;28;20024;-91
2022/06/25 02:39:09;;;;;;;6.72;1.33;;;12.60;99.90;;;;;;5097023;28;20020;-90
2022/06/25 02:41:35;;;;;;;7.60;1.20;;;12.70;99.90;;;;;;5097221;28;20053;-91
2022/06/25 02:44:01;;;;;;;5.40;1.13;;;12.70;99.90;;;;;;5097285;28;20114;-91
2022/06/25 02:46:26;;;;;;;6.45;1.92;;;12.70;99.90;;;;;;5097747;28;20019;-89
2022/06/25 02:48:52;;;;;;;6.78;1.35;;;12.60;99.90;;;;;;5096456;28;20085;-92
2022/06/25 02:51:18;;;;;;;7.88;1.00;;;12.60;99.90;;;;;;5096760;28;20042;-91
2022/06/25 02:53:43;;;;;;;3.75;1.48;;;12.60;99.90;;;;;;5096611;28;20032;-88
2022/06/25 02:58:56;;;;;;;13.85;2.20;;;12.60;99.90;;;;;;5096127;28;20042;-90
2022/06/25 03:01:24;;;;;;;5.30;0.90;;;12.50;99.90;;;;;;5097390;28;20052;-91
2022/06/25 03:03:51;;;;;;;9.15;1.42;;;12.50;99.90;;;;;;5095885;28;20024;-90
2022/06/25 03:06:17;;;;;;;7.00;1.38;;;12.50;99.90;;;;;;5096122;28;20066;-90
2022/06/25 03:08:42;;;;;;;4.13;1.05;;;12.50;99.90;;;;;;5091305;28;20113;-92
2022/06/25 03:11:08;;;;;;;3.50;1.00;;;12.50;99.90;;;;;;5096397;28;20044;-91
2022/06/25 03:13:36;;;;;;;5.63;1.17;;;12.40;99.90;;;;;;5096060;28;20027;-90
2022/06/25 03:16:06;;;;;;;5.40;1.33;;;12.40;99.90;;;;;;5097615;28;20020;-90
2022/06/25 03:18:33;;;;;;;5.47;1.00;;;12.30;99.90;;;;;;5096225;28;20024;-91
2022/06/25 03:20:59;;;;;;;4.47;1.33;;;12.30;99.90;;;;;;5094515;28;20028;-89
2022/06/25 03:23:27;;;;;;;5.15;1.08;;;12.20;99.90;;;;;;5075003;28;20032;-89
2022/06/25 03:25:53;;;;;;;9.23;1.40;;;12.20;99.90;;;;;;5095029;28;20057;-90
2022/06/25 03:28:21;;;;;;;9.63;1.40;;;12.20;99.90;;;;;;5095004;28;20016;-91
2022/06/25 03:30:47;;;;;;;4.95;1.27;;;12.10;99.90;;;;;;5094604;28;20111;-88
2022/06/25 03:33:13;;;;;;;6.03;1.27;;;12.10;99.90;;;;;;5097334;28;20499;-89
2022/06/25 03:35:39;;;;;;;8.48;1.25;;;12.00;99.90;;;;;;5098342;28;20039;-92
2022/06/25 03:38:05;;;;;;;5.95;1.05;;;12.00;99.90;;;;;;5095582;28;20020;-92
2022/06/25 03:40:32;;;;;;;4.30;1.00;;;11.90;99.90;;;;;;5095283;28;20034;-92
2022/06/25 03:42:59;;;;;;;6.47;1.00;;;11.90;99.90;;;;;;5094946;28;20032;-89
2022/06/25 03:45:25;;;;;;;7.18;1.17;;;11.90;99.90;;;;;;5092696;28;20489;-90
2022/06/25 03:47:51;;;;;;;7.28;1.30;;;11.80;99.90;;;;;;5095899;28;20020;-91
2022/06/25 03:50:18;;;;;;;11.20;1.55;;;11.70;99.90;;;;;;5103435;28;20028;-92
2022/06/25 03:52:44;;;;;;;7.13;1.23;;;11.70;99.90;;;;;;5097353;28;20097;-90
2022/06/25 03:55:10;;;;;;;6.22;1.17;;;11.70;99.90;;;;;;5097525;28;20027;-91
2022/06/25 03:57:36;;;;;;;7.03;1.42;;;11.70;99.90;;;;;;5095645;28;20020;-91
2022/06/25 04:00:03;;;;;;;7.65;1.30;;;11.70;99.90;;;;;;5094837;28;20031;-90
2022/06/25 04:02:28;;;;;;;5.40;1.45;;;11.60;99.90;;;;;;5095226;28;20044;-91
2022/06/25 04:04:54;;;;;;;7.10;1.27;;;11.60;99.90;;;;;;5095749;28;20031;-92
2022/06/25 04:07:20;;;;;;;6.55;1.17;;;11.60;99.90;;;;;;5094941;28;20355;-90
2022/06/25 04:09:45;;;;;;;10.60;1.95;;;11.50;99.90;;;;;;5094540;28;20034;-92
2022/06/25 04:12:12;;;;;;;9.85;1.88;;;11.50;99.90;;;;;;5077535;28;20466;-90
2022/06/25 04:14:39;;;;;;;6.70;1.20;;;11.50;99.90;;;;;;5095496;28;20099;-90
2022/06/25 04:17:06;;;;;;;6.97;1.10;;;11.50;99.90;;;;;;5071658;28;20052;-89
2022/06/25 04:19:39;;;;;;;9.73;1.20;;;11.40;99.90;;;;;;5093714;28;20073;-90
2022/06/25 04:22:07;;;;;;;15.73;2.47;;;11.40;99.90;;;;;;5090845;28;20507;-89
2022/06/25 04:24:36;;;;;;;9.82;1.40;;;11.40;99.90;;;;;;5093747;28;20034;-91
2022/06/25 04:27:01;;;;;;;11.57;1.75;;;11.40;99.90;;;;;;5093493;28;20768;-91
2022/06/25 04:29:28;;;;;;;5.22;1.35;;;11.30;99.90;;;;;;5093620;28;20028;-92
2022/06/25 04:31:54;;;;;;;8.68;1.15;;;11.40;99.90;;;;;;5093553;28;20077;-91
2022/06/25 04:34:19;;;;;;;6.10;1.48;;;11.30;99.90;;;;;;5093474;28;20069;-90
2022/06/25 04:36:45;;;;;;;7.43;1.08;;;11.30;99.90;;;;;;5093271;28;20370;-90
2022/06/25 04:39:11;;;;;;;3.50;1.02;;;11.30;99.90;;;;;;5092854;28;20020;-92
2022/06/25 04:41:37;;;;;;;7.57;1.60;;;11.30;99.90;;;;;;5093733;28;20020;-90
2022/06/25 04:44:03;;;;;;;8.60;1.25;;;11.30;99.90;;;;;;5093804;28;20192;-89
2022/06/25 04:46:29;;;;;;;8.95;1.67;;;11.30;99.90;;;;;;5093888;28;20031;-88
2022/06/25 04:48:56;;;;;;;10.95;1.27;;;11.40;99.90;;;;;;5078196;28;20028;-91
2022/06/25 04:51:22;;;;;;;5.55;1.08;;;11.30;99.90;;;;;;5102337;28;20019;-92
2022/06/25 04:53:58;;;;;;;5.32;1.10;;;11.40;99.90;;;;;;5111719;28;20008;-88
2022/06/25 04:56:28;;;;;;;10.10;1.50;;;11.40;99.90;;;;;;5093458;28;20012;-92
2022/06/25 04:58:56;;;;;;;9.07;1.25;;;11.40;99.90;;;;;;5093678;28;20124;-89
2022/06/25 05:01:22;;;;;;;6.78;1.48;;;11.40;99.90;;;;;;5076138;28;20058;-91
2022/06/25 05:03:48;;;;;;;9.48;1.33;;;11.40;99.90;;;;;;5105510;28;20032;-90
2022/06/25 05:06:15;;;;;;;8.30;1.30;;;11.40;99.90;;;;;;5107810;28;20084;-88
2022/06/25 05:08:42;;;;;;;7.05;1.17;;;11.50;99.90;;;;;;5096369;28;20016;-90
2022/06/25 05:11:09;;;;;;;5.78;1.25;;;11.40;99.90;;;;;;5107900;28;20065;-87
2022/06/25 05:13:35;;;;;;;7.93;1.48;;;11.40;99.90;;;;;;5105559;28;20035;-91
2022/06/25 05:16:00;;;;;;;9.60;2.00;;;11.50;99.90;;;;;;5096494;28;20024;-89
2022/06/25 05:18:27;;;;;;;8.75;3.03;;;11.50;99.90;;;;;;5095756;28;20103;-90
2022/06/25 05:20:55;;;;;;;4.97;1.10;;;11.50;99.90;;;;;;5097739;28;20020;-88
2022/06/25 05:23:21;;;;;;;6.03;1.52;;;11.50;99.90;;;;;;5103425;28;20081;-91
2022/06/25 05:25:47;;;;;;;4.03;1.33;;;11.60;99.90;;;;;;5105190;28;20028;-89
2022/06/25 05:28:13;;;;;;;9.65;1.08;;;11.60;99.90;;;;;;5096169;28;20012;-91
2022/06/25 05:30:39;;;;;;;7.05;1.25;;;11.60;99.90;;;;;;5095381;28;20052;-87
2022/06/25 05:33:04;;;;;;;9.07;1.30;;;11.60;99.90;;;;;;5090793;28;20028;-91
2022/06/25 05:35:30;;;;;;;9.65;1.48;;;11.60;99.90;;;;;;5093201;28;20027;-90
2022/06/25 05:37:56;;;;;;;11.57;1.45;;;11.60;99.90;;;;;;5093829;28;20107;-91
2022/06/25 05:40:22;;;;;;;7.70;1.65;;;11.70;99.90;;;;;;5094289;28;20115;-88
2022/06/25 05:42:48;;;;;;;12.30;3.42;;;11.70;99.90;;;;;;5094854;28;20189;-91
2022/06/25 05:45:14;;;;;;;6.05;1.50;;;11.70;99.90;;;;;;5093511;28;20149;-91
2022/06/25 05:47:40;;;;;;;9.73;1.38;;;11.70;99.90;;;;;;5102584;28;20058;-91
2022/06/25 05:50:07;;;;;;;8.48;1.58;;;11.70;99.90;;;;;;5096567;28;20119;-91
2022/06/25 05:52:33;;;;;;;8.27;1.73;;;11.70;99.90;;;;;;5096634;28;20518;-90
2022/06/25 05:55:00;;;;;;;5.90;1.65;;;11.80;99.90;;;;;;5095821;28;20032;-91
2022/06/25 05:57:26;;;;;;;10.23;1.80;;;11.80;99.90;;;;;;5094150;28;20024;-90
2022/06/25 05:59:53;;;;;;;12.30;2.03;;;11.80;99.90;;;;;;5106486;28;20107;-91
2022/06/25 06:02:18;;;;;;;11.32;2.03;;;11.90;99.90;;;;;;5107464;28;20044;-89
2022/06/25 06:04:44;;;;;;;5.13;1.38;;;11.90;99.90;;;;;;5112525;28;20038;-90
2022/06/25 06:07:10;;;;;;;7.80;2.17;;;12.00;99.90;;;;;;5105448;28;20389;-91
2022/06/25 06:09:36;;;;;;;6.97;2.03;;;12.00;99.90;;;;;;5107554;28;20027;-90
2022/06/25 06:12:01;;;;;;;8.70;1.55;;;12.00;99.90;;;;;;5097932;28;20027;-90
2022/06/25 06:14:27;;;;;;;7.85;1.75;;;12.10;99.90;;;;;;5095189;28;20031;-92
2022/06/25 06:16:53;;;;;;;6.03;1.90;;;12.20;99.90;;;;;;5077158;28;20052;-91
2022/06/25 06:19:19;;;;;;;10.75;1.45;;;12.30;99.90;;;;;;5092232;28;20054;-91
2022/06/25 06:21:45;;;;;;;5.90;1.23;;;12.30;99.90;;;;;;5092035;28;20024;-90
2022/06/25 06:24:11;;;;;;;9.18;2.58;;;12.40;99.90;;;;;;5092348;28;20024;-93
2022/06/25 06:26:37;;;;;;;9.25;1.42;;;12.50;99.90;;;;;;5099806;28;20497;-88
2022/06/25 06:29:03;;;;;;;8.93;1.95;;;12.60;99.90;;;;;;5095262;28;20069;-88
2022/06/25 06:31:29;;;;;;;10.60;1.35;;;12.60;99.90;;;;;;5104719;28;20477;-89
2022/06/25 06:33:55;;;;;;;10.10;1.85;;;12.70;99.90;;;;;;5094842;28;20025;-91
2022/06/25 06:36:21;;;;;;;5.95;1.30;;;12.70;99.90;;;;;;5092785;28;20039;-89
2022/06/25 06:38:47;;;;;;;8.70;1.63;;;12.70;99.90;;;;;;5095685;28;20024;-91
2022/06/25 06:41:16;;;;;;;9.73;1.80;;;12.80;99.90;;;;;;5095643;28;20020;-89
2022/06/25 06:43:42;;;;;;;7.10;1.23;;;12.90;99.90;;;;;;5094288;28;20021;-92
2022/06/25 06:46:08;;;;;;;8.30;1.80;;;12.90;99.90;;;;;;5094859;28;20097;-90
2022/06/25 06:48:34;;;;;;;9.38;1.45;;;13.00;99.90;;;;;;5094106;28;20053;-91
2022/06/25 06:50:59;;;;;;;9.18;1.60;;;13.10;99.90;;;;;;5093621;28;20031;-89
2022/06/25 06:53:25;;;;;;;6.80;1.90;;;13.20;99.90;;;;;;5093388;28;20027;-90
2022/06/25 06:55:51;;;;;;;6.95;1.20;;;13.40;99.90;;;;;;5093630;28;20032;-89
2022/06/25 06:58:17;;;;;;;6.50;1.80;;;13.50;99.90;;;;;;5093358;28;20020;-90
2022/06/25 07:00:43;;;;;;;5.55;1.20;;;13.50;99.90;;;;;;5092911;28;20027;-88
2022/06/25 07:03:09;;;;;;;5.90;1.35;;;13.60;99.90;;;;;;5098153;28;20040;-89
2022/06/25 07:05:35;;;;;;;11.68;1.55;;;13.60;99.90;;;;;;5096136;28;20032;-88
2022/06/25 07:08:00;;;;;;;13.85;1.63;;;13.70;99.90;;;;;;5098004;28;20101;-89
2022/06/25 07:10:26;;;;;;;2.42;1.17;;;13.70;99.90;;;;;;5096278;28;20024;-89
2022/06/25 07:12:52;;;;;;;9.50;1.70;;;13.80;99.90;;;;;;5096782;28;20016;-92
2022/06/25 07:15:18;;;;;;;8.25;1.80;;;13.80;99.90;;;;;;5076720;28;20410;-90
2022/06/25 07:17:44;;;;;;;8.45;1.75;;;13.80;99.90;;;;;;5090464;28;20016;-89
2022/06/25 07:20:10;;;;;;;8.13;1.65;;;13.70;99.90;;;;;;5096763;28;20410;-89
2022/06/25 07:22:35;;;;;;;12.13;1.73;;;13.70;99.90;;;;;;5096003;28;20049;-88
2022/06/25 07:25:01;;;;;;;10.93;1.70;;;13.80;99.90;;;;;;5094613;28;20039;-89
2022/06/25 07:27:27;;;;;;;8.05;1.58;;;13.90;99.90;;;;;;5096329;28;20020;-91
2022/06/25 07:29:53;;;;;;;7.53;1.52;;;14.00;99.90;;;;;;5096109;28;20044;-89
2022/06/25 07:32:18;;;;;;;10.68;1.80;;;14.00;99.90;;;;;;5076359;28;20021;-89
2022/06/25 07:34:44;;;;;;;8.32;1.50;;;14.10;99.90;;;;;;5084938;28;20450;-90
2022/06/25 07:37:10;;;;;;;6.72;1.40;;;14.20;99.90;;;;;;5096322;28;20028;-90
2022/06/25 07:39:35;;;;;;;3.10;1.05;;;14.20;99.90;;;;;;5108373;28;20081;-92
2022/06/25 07:42:01;;;;;;;5.07;1.30;;;14.20;99.90;;;;;;5135334;28;20020;-91
2022/06/25 07:44:27;;;;;;;15.23;1.65;;;14.30;99.90;;;;;;5124186;28;20060;-91
2022/06/25 07:46:52;;;;;;;7.65;1.50;;;14.40;99.90;;;;;;5117116;28;20027;-91
2022/06/25 07:49:18;;;;;;;4.18;1.38;;;14.40;99.90;;;;;;5099576;28;20028;-91
2022/06/25 07:51:56;;;;;;;5.35;1.60;;;14.50;99.90;;;;;;5105791;28;20012;-92
2022/06/25 07:54:22;;;;;;;7.18;1.30;;;14.60;99.90;;;;;;5107881;28;20416;-91
2022/06/25 07:56:48;;;;;;;8.73;0.70;;;14.70;99.90;;;;;;5095927;28;20020;-91
2022/06/25 07:59:14;;;;;;;9.15;1.48;;;14.90;99.90;;;;;;5097934;28;20094;-92
2022/06/25 08:01:40;;;;;;;6.53;1.23;;;14.90;99.90;;;;;;5098540;28;20132;-92
2022/06/25 08:04:05;;;;;;;7.63;1.20;;;15.10;99.90;;;;;;5098586;28;20052;-92
2022/06/25 08:06:34;;;;;;;6.25;1.33;;;15.20;99.90;;;;;;5101767;28;20032;-91
2022/06/25 08:09:01;;;;;;;8.90;1.30;;;15.40;99.90;;;;;;5102338;28;20020;-93
2022/06/25 08:11:29;;;;;;;10.02;1.48;;;15.60;99.90;;;;;;5102053;28;20035;-92
2022/06/25 08:13:54;;;;;;;10.32;1.65;;;15.60;98.20;;;;;;5096836;28;20024;-92
2022/06/25 08:16:21;;;;;;;5.85;1.35;;;15.60;97.20;;;;;;5097245;28;20085;-90
2022/06/25 08:18:48;;;;;;;5.95;1.30;;;15.50;96.20;;;;;;5103120;28;20020;-90
2022/06/25 08:21:14;;;;;;;7.90;1.35;;;15.40;96.20;;;;;;5109606;28;20035;-92
2022/06/25 08:23:39;;;;;;;6.55;1.52;;;15.40;96.60;;;;;;5106643;28;20031;-90
2022/06/25 08:26:05;;;;;;;7.13;1.45;;;15.40;96.60;;;;;;5096823;28;20105;-91
2022/06/25 08:28:31;;;;;;;7.78;1.45;;;15.50;96.60;;;;;;5076335;28;20025;-90
2022/06/25 08:30:57;;;;;;;8.43;1.60;;;15.60;96.50;;;;;;5096990;28;20513;-90
2022/06/25 08:33:23;;;;;;;5.55;1.20;;;15.70;96.30;;;;;;5095384;28;20027;-89
2022/06/25 08:35:49;;;;;;;6.10;1.40;;;15.80;96.00;;;;;;5096829;28;20102;-90
2022/06/25 08:38:16;;;;;;;7.47;1.15;;;16.00;94.80;;;;;;5095748;28;20077;-91
2022/06/25 08:40:42;;;;;;;7.07;1.92;;;16.00;92.90;;;;;;5095964;28;20020;-91
2022/06/25 08:43:08;;;;;;;5.78;1.38;;;16.00;92.50;;;;;;5095835;28;20023;-93
2022/06/25 08:45:34;;;;;;;7.03;1.35;;;15.80;92.90;;;;;;5097072;28;20077;-92
2022/06/25 08:48:01;;;;;;;8.57;1.55;;;15.80;93.30;;;;;;5095619;28;20106;-91
2022/06/25 08:50:28;;;;;;;5.32;1.80;;;16.00;93.50;;;;;;5094897;28;20028;-92
2022/06/25 08:52:55;;;;;;;3.28;1.38;;;15.90;93.60;;;;;;5102698;28;20028;-92
2022/06/25 08:55:31;;;;;;;5.95;1.60;;;16.00;93.70;;;;;;5101374;28;20550;-92
2022/06/25 08:58:01;;;;;;;8.52;1.40;;;16.10;93.80;;;;;;5102415;28;20031;-90
2022/06/25 09:00:31;;;;;;;8.02;1.60;;;16.00;92.70;;;;;;5104458;28;20039;-91
2022/06/25 09:02:57;;;;;;;7.05;1.98;;;16.10;92.50;;;;;;5105846;28;20036;-91
2022/06/25 09:05:29;;;;;;;5.50;1.45;;;16.30;92.40;;;;;;5100144;28;20036;-91
2022/06/25 09:07:59;;;;;;;7.97;1.45;;;16.60;92.30;;;;;;5099381;28;20469;-91
2022/06/25 09:10:26;;;;;;;6.30;1.40;;;16.60;91.70;;;;;;5120300;28;20054;-89
2022/06/25 09:12:54;;;;;;;6.88;1.92;;;16.60;91.30;;;;;;5122142;28;20015;-90
2022/06/25 09:15:23;;;;;;;8.90;1.70;;;16.50;91.00;;;;;;5112193;28;20032;-91
2022/06/25 09:17:51;;;;;;;7.15;2.05;;;16.40;91.10;;;;;;5105957;28;20019;-91
2022/06/25 09:20:19;;;;;;;9.75;1.60;;;16.30;91.40;;;;;;5106865;28;20130;-92
2022/06/25 09:23:00;;;;;;;12.90;2.33;;;16.20;91.60;;;;;;5100811;28;20020;-92
2022/06/25 09:25:31;;;;;;;7.07;1.88;;;16.10;91.80;;;;;;5104960;28;20085;-93
2022/06/25 09:27:58;;;;;;;5.95;1.58;;;16.20;92.10;;;;;;5107671;28;20473;-90
2022/06/25 09:30:30;;;;;;;4.10;1.40;;;16.40;92.30;;;;;;5102649;28;20505;-93
2022/06/25 09:32:58;;;;;;;6.68;1.95;;;16.60;92.00;;;;;;5104571;28;20027;-92
2022/06/25 09:35:33;;;;;;;6.60;1.25;;;16.90;90.70;;;;;;5099793;28;20024;-93
2022/06/25 09:38:16;;;;;;;8.23;1.83;;;17.00;88.90;;;;;;5100712;28;20032;-94
2022/06/25 09:40:59;;;;;;;8.45;1.15;;;17.00;87.50;;;;;;5102866;28;20099;-90
2022/06/25 09:43:34;;;;;;;4.47;1.20;;;17.10;84.90;;;;;;5106418;28;20024;-91
2022/06/25 09:46:03;;;;;;;8.05;1.27;;;17.20;84.80;;;;;;5101259;28;20024;-92
2022/06/25 09:48:31;;;;;;;5.13;1.38;;;17.30;85.30;;;;;;5105635;28;20094;-92
2022/06/25 09:51:20;;;;;;;9.05;1.60;;;17.30;84.80;;;;;;5091585;28;20111;-92
2022/06/25 09:53:51;;;;;;;5.25;1.77;;;17.20;85.00;;;;;;5097566;28;20015;-91
2022/06/25 09:56:33;;;;;;;6.60;1.92;;;17.10;84.70;;;;;;5103766;28;20034;-91
2022/06/25 09:59:00;;;;;;;6.88;1.70;;;17.00;84.20;;;;;;5105619;28;20063;-92
2022/06/25 10:01:31;;;;;;;6.47;1.15;;;17.10;84.20;;;;;;5103989;28;20517;-93
2022/06/25 10:03:58;;;;;;;;;;;17.30;82.70;;;;;;5098658;28;20032;-93
2022/06/25 10:06:25;;;;;;;4.10;1.00;;;17.60;81.20;;;;;;5104694;28;19911;-92
2022/06/25 10:08:54;;;;;;;4.40;1.10;;;17.80;78.30;;;;;;5107348;28;20031;-93
2022/06/25 10:11:23;;;;;;;5.43;1.00;;;18.00;76.40;;;;;;5105439;28;20027;-93
2022/06/25 10:13:50;;;;;;;2.63;1.17;;;17.90;75.10;;;;;;5092268;28;20016;-92
2022/06/25 10:16:20;;;;;;;4.32;1.35;;;18.00;75.00;;;;;;5121701;28;20455;-93
2022/06/25 10:18:48;;;;;;;3.60;1.30;;;18.00;75.50;;;;;;5090870;28;20533;-95
2022/06/25 10:21:14;;;;;;;2.92;0.93;;;18.10;75.80;;;;;;5086383;28;20029;-93
2022/06/25 10:23:41;;;;;;;4.28;1.33;;;18.10;74.50;;;;;;5088329;28;20028;-94
2022/06/25 10:26:08;;;;;;;5.03;1.30;;;18.10;74.00;;;;;;5079408;28;20021;-91
2022/06/25 10:28:37;;;;;;;4.97;1.17;;;18.20;73.90;;;;;;5083997;28;20032;-92
2022/06/25 10:31:13;;;;;;;3.35;0.75;;;18.40;73.70;;;;;;5088993;28;20016;-94
2022/06/25 10:34:15;;;;;;;4.53;1.30;;;18.60;72.50;;;;;;5093490;28;20039;-93
2022/06/25 10:36:40;;;;;;;7.60;1.85;;;18.70;71.60;;;;;;4996076;28;20022;-92
2022/06/25 10:39:38;;;;;;;4.05;1.10;;;18.90;72.10;;;;;;4994296;28;20042;-93
2022/06/25 10:45:15;;;;;;;7.28;1.30;;;19.10;70.50;;;;;;5010392;28;20610;-95
2022/06/25 10:47:50;;;;;;;4.72;1.00;;;19.50;70.40;;;;;;4983802;28;20162;-93
2022/06/25 10:50:22;;;;;;;8.10;1.58;;;19.50;69.20;;;;;;4982762;28;20027;-91
2022/06/25 10:53:09;;;;;;;7.22;1.30;;;19.30;68.90;;;;;;4984317;28;20026;-92
2022/06/25 10:55:46;;;;;;;4.38;1.20;;;19.00;68.90;;;;;;4999050;28;20030;-91
2022/06/25 10:58:22;;;;;;;5.72;1.48;;;18.70;69.80;;;;;;4997843;28;20391;-90
2022/06/25 11:00:55;;;;;;;4.85;1.40;;;18.80;70.30;;;;;;4991194;28;20472;-90
2022/06/25 11:03:44;;;;;;;4.72;1.30;;;18.70;70.00;;;;;;4998401;28;20123;-94
2022/06/25 11:06:29;;;;;;;8.30;1.45;;;18.90;70.80;;;;;;4993178;28;20078;-94
2022/06/25 11:09:14;;;;;;;4.82;1.40;;;19.20;71.10;;;;;;4997618;28;20480;-94
2022/06/25 11:11:44;;;;;;;5.03;1.40;;;19.50;70.40;;;;;;5085928;28;20055;-94
2022/06/25 11:14:22;;;;;;;3.50;1.15;;;19.70;70.20;;;;;;5089983;28;20020;-92
2022/06/25 11:19:24;;;;;;;4.65;1.10;;;20.00;66.70;;;;;;5149079;22;20413;-94
2022/06/25 11:21:54;;;;;;;4.03;1.27;;;20.10;66.50;;;;;;5092257;28;20109;-90
2022/06/25 11:24:27;;;;;;;2.30;0.85;;;20.20;66.20;;;;;;5090477;28;20035;-91
2022/06/25 11:33:27;;;;;;;5.68;1.23;;;19.80;66.70;;;;;;5270235;22;20114;-90
2022/06/25 11:35:55;;;;;;;6.72;1.38;;;19.50;66.70;;;;;;5075032;28;20028;-91
2022/06/25 11:38:23;;;;;;;4.05;1.33;;;19.30;67.20;;;;;;5073374;28;20485;-91
2022/06/25 11:40:51;;;;;;;6.13;1.10;;;19.10;67.30;;;;;;5070206;28;20082;-90
2022/06/25 11:43:17;;;;;;;3.63;1.00;;;18.80;69.00;;;;;;5068013;28;20032;-91
2022/06/25 11:45:51;;;;;;;12.13;1.42;;;18.60;70.50;;;;;;5074495;28;20034;-90
2022/06/25 11:48:18;;;;;;;6.38;1.20;;;18.40;71.40;;;;;;5074739;28;20611;-89
2022/06/25 11:50:47;;;;;;;7.00;1.27;;;18.30;72.10;;;;;;5078183;28;20029;-89
2022/06/25 11:53:13;;;;;;;2.25;0.73;;;18.00;73.10;;;;;;5080563;28;20347;-89
2022/06/25 11:55:54;;;;;;;2.40;1.00;;;18.10;73.00;;;;;;5071440;28;20031;-91
2022/06/25 11:58:20;;;;;;;3.30;1.25;;;18.30;71.20;;;;;;5074445;28;20036;-91
2022/06/25 12:00:46;;;;;;;2.67;0.90;;;18.60;69.80;;;;;;5075160;28;20016;-89
2022/06/25 12:03:11;;;;;;;3.10;1.10;;;18.90;69.20;;;;;;5083898;28;20021;-91
2022/06/25 12:05:37;;;;;;;2.33;0.90;;;19.30;68.70;;;;;;5075860;28;20036;-91
2022/06/25 12:08:04;;;;;;;1.10;0.70;;;19.60;68.30;;;;;;5067006;28;20036;-91
2022/06/25 12:10:30;;;;;;;1.65;0.70;;;20.10;68.30;;;;;;5065759;28;20033;-90
2022/06/25 12:12:56;;;;;;;8.73;1.40;;;20.30;67.20;;;;;;5068494;28;20127;-91
2022/06/25 12:15:29;;;;;;;4.93;1.13;;;20.20;65.70;;;;;;5061633;28;20032;-89
2022/06/25 12:18:03;;;;;;;4.80;1.20;;;19.90;65.50;;;;;;5065560;28;20090;-90
2022/06/25 12:20:29;;;;;;;4.03;1.13;;;19.60;66.60;;;;;;5062360;28;20025;-90
2022/06/25 12:22:57;;;;;;;87.07;38.13;;;19.30;67.30;;;;;;5071586;28;20094;-90
2022/06/25 12:25:33;;;;;;;4.38;1.38;;;19.10;67.30;;;;;;5074266;28;20032;-89
2022/06/25 12:27:59;;;;;;;4.00;0.70;;;18.90;67.60;;;;;;5074691;28;20128;-89
2022/06/25 12:30:29;;;;;;;4.70;1.20;;;18.70;69.00;;;;;;5074291;28;20060;-89
2022/06/25 12:33:03;;;;;;;3.25;1.20;;;18.50;70.40;;;;;;5074583;28;20032;-90
2022/06/25 12:35:33;;;;;;;2.55;1.33;;;18.40;71.40;;;;;;5075088;28;20043;-90
2022/06/25 12:38:00;;;;;;;1.92;1.25;;;18.50;72.40;;;;;;5076322;28;20017;-89
2022/06/25 12:40:26;;;;;;;4.78;1.17;;;18.60;72.80;;;;;;5075026;28;20025;-89
2022/06/25 12:42:57;;;;;;;4.65;1.20;;;18.70;73.10;;;;;;5075163;28;20035;-91
2022/06/25 12:45:24;;;;;;;3.70;1.27;;;18.80;73.20;;;;;;5060786;28;20378;-89
2022/06/25 12:47:50;;;;;;;4.28;1.10;;;19.00;72.30;;;;;;5077551;28;20020;-89
2022/06/25 12:50:31;;;;;;;4.95;1.42;;;19.20;72.20;;;;;;5074226;28;20025;-90
2022/06/25 12:53:07;;;;;;;3.97;1.10;;;19.60;71.50;;;;;;5055919;28;20190;-90
2022/06/25 12:55:33;;;;;;;5.55;1.17;;;20.00;70.50;;;;;;5076905;28;20052;-91
2022/06/25 12:58:08;;;;;;;6.55;1.60;;;20.20;69.80;;;;;;5074304;28;20040;-89
2022/06/25 13:00:37;;;;;;;4.28;1.15;;;20.50;69.00;;;;;;5072254;28;20543;-90
2022/06/25 13:03:07;;;;;;;3.25;1.15;;;20.90;68.90;;;;;;5073580;28;20102;-89
2022/06/25 13:05:34;;;;;;;4.93;1.20;;;21.20;67.40;;;;;;5075952;28;20035;-90
2022/06/25 13:08:01;;;;;;;6.68;1.10;;;21.30;65.00;;;;;;5073418;28;20086;-90
2022/06/25 13:10:27;;;;;;;3.45;1.45;;;21.50;64.20;;;;;;5073708;28;20607;-89